Time;durP1;ratioP1;P1;durP2;ratioP2;P2;SDS_P1;SDS_P2;PMS_P1;PMS_P2;Temp;Humidity;BMP_temperature;BMP_pressure;BME280_temperature;BME280_humidity;BME280_pressure;Samples;Min_cycle;Max_cycle;Signal;HPM_P1;HPM_P2
2023/07/07 00:03:52;;;;;;;12.82;9.55;;;;;;;;;;10497535;28;20207;-74
2023/07/07 00:08:52;;;;;;;16.20;9.30;;;;;;;;;;10497291;28;20183;-73
2023/07/07 00:13:54;;;;;;;16.70;9.05;;;;;;;;;;10496822;28;20111;-74
2023/07/07 00:18:56;;;;;;;14.10;8.93;;;;;;;;;;10496952;28;20032;-73
2023/07/07 00:23:56;;;;;;;13.85;8.95;;;;;;;;;;10496743;28;20016;-73
2023/07/07 00:28:56;;;;;;;18.45;9.50;;;;;;;;;;10496206;28;20382;-73
2023/07/07 00:33:57;;;;;;;16.73;9.43;;;;;;;;;;10497016;28;20318;-73
2023/07/07 00:38:57;;;;;;;11.53;8.50;;;;;;;;;;10497173;28;20012;-74
2023/07/07 00:44:05;;;;;;;12.52;8.82;;;;;;;;;;10497152;28;20016;-73
2023/07/07 00:49:05;;;;;;;;;;;;;;;;;;10464326;28;20038;-73
2023/07/07 00:54:09;;;;;;;12.52;9.07;;;;;;;;;;10495137;28;19912;-74
2023/07/07 00:59:10;;;;;;;16.30;8.48;;;;;;;;;;10495277;28;20029;-72
2023/07/07 01:04:14;;;;;;;17.63;9.77;;;;;;;;;;10496399;28;20020;-73
2023/07/07 01:09:14;;;;;;;14.57;9.45;;;;;;;;;;10496195;28;20040;-73
2023/07/07 01:14:20;;;;;;;16.07;9.17;;;;;;;;;;10495720;28;20245;-74
2023/07/07 01:19:23;;;;;;;19.42;10.30;;;;;;;;;;10502523;28;20176;-73
2023/07/07 01:24:26;;;;;;;18.17;10.77;;;;;;;;;;10503637;28;20189;-74
2023/07/07 01:29:41;;;;;;;16.65;10.30;;;;;;;;;;10503129;28;20021;-73
2023/07/07 01:34:41;;;;;;;21.05;10.38;;;;;;;;;;10503507;28;20318;-73
2023/07/07 01:39:43;;;;;;;13.85;9.77;;;;;;;;;;10496901;28;20083;-73
2023/07/07 01:44:56;;;;;;;17.65;10.45;;;;;;;;;;10477704;28;20028;-73
2023/07/07 01:50:01;;;;;;;12.82;10.18;;;;;;;;;;10471278;28;20103;-73
2023/07/07 01:55:25;;;;;;;17.92;10.45;;;;;;;;;;10477249;28;20358;-74
2023/07/07 02:00:26;;;;;;;17.20;9.45;;;;;;;;;;10470985;28;20029;-73
2023/07/07 02:05:27;;;;;;;17.02;9.60;;;;;;;;;;10481904;28;20084;-73
2023/07/07 02:10:27;;;;;;;16.85;9.98;;;;;;;;;;10483729;28;20055;-73
2023/07/07 02:15:27;;;;;;;16.70;10.02;;;;;;;;;;10469052;28;20058;-74
2023/07/07 02:20:28;;;;;;;16.35;10.70;;;;;;;;;;10482026;28;20020;-74
2023/07/07 02:25:28;;;;;;;19.45;11.60;;;;;;;;;;10465655;28;20020;-74
2023/07/07 02:30:28;;;;;;;17.87;10.57;;;;;;;;;;10477688;28;20635;-72
2023/07/07 02:35:31;;;;;;;20.77;12.63;;;;;;;;;;10477416;28;20282;-72
2023/07/07 02:40:31;;;;;;;20.65;11.45;;;;;;;;;;10470812;28;20032;-73
2023/07/07 02:45:32;;;;;;;14.75;10.55;;;;;;;;;;10483463;28;20024;-73
2023/07/07 02:50:32;;;;;;;16.95;11.07;;;;;;;;;;10498417;28;20017;-74
2023/07/07 02:55:33;;;;;;;17.90;12.82;;;;;;;;;;10498403;28;20072;-73
2023/07/07 03:00:33;;;;;;;19.48;13.75;;;;;;;;;;10462511;28;20016;-73
2023/07/07 03:05:33;;;;;;;27.95;16.00;;;;;;;;;;10456789;28;20356;-73
2023/07/07 03:10:34;;;;;;;24.33;16.30;;;;;;;;;;10461967;28;20540;-73
2023/07/07 03:15:44;;;;;;;22.98;14.82;;;;;;;;;;10490681;28;20079;-74
2023/07/07 03:20:47;;;;;;;22.55;15.27;;;;;;;;;;10443941;28;20375;-74
2023/07/07 03:25:48;;;;;;;17.80;13.43;;;;;;;;;;10490155;28;20029;-75
2023/07/07 03:30:48;;;;;;;21.00;12.27;;;;;;;;;;10495659;28;20023;-74
2023/07/07 03:35:52;;;;;;;21.70;13.57;;;;;;;;;;10495573;28;20044;-74
2023/07/07 03:40:52;;;;;;;26.88;16.73;;;;;;;;;;10497924;28;20246;-74
2023/07/07 03:45:53;;;;;;;33.92;16.35;;;;;;;;;;10496586;28;20017;-74
2023/07/07 03:50:57;;;;;;;27.02;14.40;;;;;;;;;;10497735;28;20027;-74
2023/07/07 03:55:58;;;;;;;20.02;11.73;;;;;;;;;;10497548;28;20065;-73
2023/07/07 04:01:05;;;;;;;21.90;12.70;;;;;;;;;;10489060;28;20364;-75
2023/07/07 04:06:06;;;;;;;22.35;11.88;;;;;;;;;;10465099;28;20359;-74
2023/07/07 04:11:06;;;;;;;18.83;10.57;;;;;;;;;;10460911;28;20037;-74
2023/07/07 04:16:06;;;;;;;22.58;13.48;;;;;;;;;;10466957;28;20426;-74
2023/07/07 04:21:08;;;;;;;34.38;17.92;;;;;;;;;;10465938;28;20231;-74
2023/07/07 04:26:09;;;;;;;31.67;18.42;;;;;;;;;;10473803;28;20255;-73
2023/07/07 04:31:10;;;;;;;34.20;19.60;;;;;;;;;;10460447;28;20363;-73
2023/07/07 04:36:11;;;;;;;32.05;20.05;;;;;;;;;;10475203;28;20063;-72
2023/07/07 04:41:14;;;;;;;48.08;21.10;;;;;;;;;;10464448;28;20327;-73
2023/07/07 04:46:16;;;;;;;28.85;19.00;;;;;;;;;;10489546;28;20195;-72
2023/07/07 04:51:16;;;;;;;25.30;17.73;;;;;;;;;;10497460;28;20048;-72
2023/07/07 04:56:18;;;;;;;23.60;16.77;;;;;;;;;;10500827;28;20055;-71
2023/07/07 05:01:22;;;;;;;27.90;16.50;;;;;;;;;;10498517;28;20013;-73
2023/07/07 05:06:23;;;;;;;25.55;15.40;;;;;;;;;;10498649;28;20035;-73
2023/07/07 05:11:25;;;;;;;24.25;15.75;;;;;;;;;;10501304;28;20253;-72
2023/07/07 05:16:29;;;;;;;24.17;15.38;;;;;;;;;;10503219;28;20051;-72
2023/07/07 05:21:30;;;;;;;22.25;14.85;;;;;;;;;;10503716;28;20016;-72
2023/07/07 05:26:30;;;;;;;26.77;14.53;;;;;;;;;;10502828;28;20065;-72
2023/07/07 05:31:31;;;;;;;21.95;15.95;;;;;;;;;;10500846;28;20040;-72
2023/07/07 05:36:31;;;;;;;20.88;15.43;;;;;;;;;;10501686;28;20294;-72
2023/07/07 05:41:32;;;;;;;21.83;15.23;;;;;;;;;;10502362;28;20016;-73
2023/07/07 05:46:32;;;;;;;23.35;15.25;;;;;;;;;;10502143;28;20104;-73
2023/07/07 05:51:33;;;;;;;26.92;16.88;;;;;;;;;;10502284;28;20402;-73
2023/07/07 05:56:33;;;;;;;22.80;14.57;;;;;;;;;;10501800;28;20033;-73
2023/07/07 06:01:35;;;;;;;20.80;14.30;;;;;;;;;;10501974;28;20025;-73
2023/07/07 06:06:35;;;;;;;23.60;14.55;;;;;;;;;;10501765;28;20315;-73
2023/07/07 06:11:36;;;;;;;26.52;15.88;;;;;;;;;;10500155;28;20012;-72
2023/07/07 06:16:36;;;;;;;24.13;14.75;;;;;;;;;;10500527;28;20222;-71
2023/07/07 06:21:36;;;;;;;18.65;12.95;;;;;;;;;;10501148;28;20195;-73
2023/07/07 06:26:36;;;;;;;23.13;12.82;;;;;;;;;;10499852;28;20062;-73
2023/07/07 06:31:37;;;;;;;17.98;11.23;;;;;;;;;;10500431;28;20051;-73
2023/07/07 06:36:37;;;;;;;16.65;12.02;;;;;;;;;;10500150;28;20102;-73
2023/07/07 06:41:37;;;;;;;18.20;12.77;;;;;;;;;;10500425;28;20039;-73
2023/07/07 06:46:37;;;;;;;20.98;12.68;;;;;;;;;;10500164;28;20293;-73
2023/07/07 06:51:38;;;;;;;16.88;11.68;;;;;;;;;;10499216;28;20036;-73
2023/07/07 06:56:38;;;;;;;16.92;10.50;;;;;;;;;;10498819;28;20329;-73
2023/07/07 07:01:39;;;;;;;17.95;11.50;;;;;;;;;;10499322;28;20040;-73
2023/07/07 07:06:43;;;;;;;17.08;12.13;;;;;;;;;;10499400;28;20035;-73
2023/07/07 07:11:46;;;;;;;20.73;11.95;;;;;;;;;;10498881;28;20026;-73
2023/07/07 07:16:48;;;;;;;21.67;12.30;;;;;;;;;;10498743;28;20237;-73
2023/07/07 07:21:48;;;;;;;20.50;11.15;;;;;;;;;;10484733;28;20306;-73
2023/07/07 07:26:49;;;;;;;18.02;11.48;;;;;;;;;;10498007;28;20043;-73
2023/07/07 07:31:49;;;;;;;17.38;11.40;;;;;;;;;;10498207;28;20083;-74
2023/07/07 07:36:50;;;;;;;18.77;11.80;;;;;;;;;;10498655;28;20074;-73
2023/07/07 07:41:51;;;;;;;23.00;12.73;;;;;;;;;;10497483;28;20016;-73
2023/07/07 07:46:53;;;;;;;19.17;11.77;;;;;;;;;;10496840;28;20058;-73
2023/07/07 07:51:54;;;;;;;17.70;10.93;;;;;;;;;;10501572;28;20150;-73
2023/07/07 07:56:54;;;;;;;19.88;11.93;;;;;;;;;;10497501;28;20233;-72
2023/07/07 08:01:54;;;;;;;17.40;11.75;;;;;;;;;;10496929;28;20069;-74
2023/07/07 08:06:55;;;;;;;19.90;11.50;;;;;;;;;;10497108;28;20058;-73
2023/07/07 08:11:56;;;;;;;17.67;10.27;;;;;;;;;;10496987;28;20361;-72
2023/07/07 08:16:58;;;;;;;12.20;9.45;;;;;;;;;;10500310;28;20020;-73
2023/07/07 08:21:59;;;;;;;17.75;8.60;;;;;;;;;;10496594;28;20043;-73
2023/07/07 08:26:59;;;;;;;14.23;8.10;;;;;;;;;;10494018;28;20023;-73
2023/07/07 08:31:59;;;;;;;12.40;8.10;;;;;;;;;;10496526;28;20020;-73
2023/07/07 08:36:59;;;;;;;9.23;7.20;;;;;;;;;;10495680;28;20043;-73
2023/07/07 08:42:05;;;;;;;15.55;7.75;;;;;;;;;;10496872;28;20434;-73
2023/07/07 08:47:24;;;;;;;9.57;6.72;;;;;;;;;;10494524;28;20026;-73
2023/07/07 08:52:27;;;;;;;12.93;6.97;;;;;;;;;;10495537;28;20032;-72
2023/07/07 08:57:29;;;;;;;8.80;7.53;;;;;;;;;;10485652;28;20020;-73
2023/07/07 09:02:33;;;;;;;11.30;7.13;;;;;;;;;;10494821;28;20289;-73
2023/07/07 09:07:45;;;;;;;10.57;6.78;;;;;;;;;;10495766;28;20277;-73
2023/07/07 09:12:48;;;;;;;10.80;5.70;;;;;;;;;;10479397;28;20047;-72
2023/07/07 09:17:51;;;;;;;9.90;5.65;;;;;;;;;;10494439;28;20370;-72
2023/07/07 09:22:56;;;;;;;10.88;7.15;;;;;;;;;;10495281;28;20044;-72
2023/07/07 09:28:08;;;;;;;10.85;7.38;;;;;;;;;;10495292;28;20024;-72
2023/07/07 09:33:18;;;;;;;11.52;6.82;;;;;;;;;;10495538;28;20031;-72
2023/07/07 09:38:29;;;;;;;11.07;6.65;;;;;;;;;;10499223;28;20058;-72
2023/07/07 09:43:32;;;;;;;8.82;5.90;;;;;;;;;;10502746;28;20024;-73
2023/07/07 09:48:48;;;;;;;11.95;6.10;;;;;;;;;;10502543;28;20044;-73
2023/07/07 09:53:48;;;;;;;;;;;;;;;;;;10502309;28;20161;-73
2023/07/07 09:58:53;;;;;;;10.02;6.35;;;;;;;;;;10501701;28;19911;-72
2023/07/07 10:03:54;;;;;;;13.83;6.57;;;;;;;;;;10502285;28;20219;-72
2023/07/07 10:08:54;;;;;;;13.20;6.85;;;;;;;;;;10501281;28;20404;-73
2023/07/07 10:13:55;;;;;;;8.60;6.80;;;;;;;;;;10501068;28;20218;-73
2023/07/07 10:19:06;;;;;;;12.32;7.60;;;;;;;;;;10500197;28;20083;-73
2023/07/07 10:24:09;;;;;;;9.35;7.07;;;;;;;;;;10501125;28;20297;-73
2023/07/07 10:29:12;;;;;;;11.23;8.13;;;;;;;;;;10500693;28;20069;-73
2023/07/07 10:34:35;;;;;;;15.82;8.38;;;;;;;;;;10500932;28;20319;-72
2023/07/07 10:39:35;;;;;;;12.15;7.85;;;;;;;;;;10489926;28;20063;-72
2023/07/07 10:44:36;;;;;;;10.07;7.30;;;;;;;;;;10500006;28;20028;-73
2023/07/07 10:49:36;;;;;;;8.73;6.63;;;;;;;;;;10499491;28;20349;-73
2023/07/07 10:54:45;;;;;;;11.35;6.72;;;;;;;;;;10499426;28;20048;-72
2023/07/07 11:00:00;;;;;;;9.27;7.25;;;;;;;;;;10499483;28;20078;-72
2023/07/07 11:05:23;;;;;;;8.73;6.93;;;;;;;;;;10498919;28;20036;-72
2023/07/07 11:10:39;;;;;;;12.15;7.80;;;;;;;;;;10487920;28;20041;-73
2023/07/07 11:15:39;;;;;;;12.50;7.25;;;;;;;;;;10478173;28;20126;-73
2023/07/07 11:21:02;;;;;;;12.00;7.70;;;;;;;;;;10499100;28;20413;-73
2023/07/07 11:26:12;;;;;;;11.05;4.32;;;;;;;;;;10485640;28;20027;-73
2023/07/07 11:31:39;;;;;;;8.05;4.60;;;;;;;;;;10498419;28;20299;-73
2023/07/07 11:36:56;;;;;;;7.60;4.88;;;;;;;;;;10460250;28;20179;-73
2023/07/07 11:42:11;;;;;;;14.30;5.10;;;;;;;;;;10498699;28;20210;-72
2023/07/07 11:47:17;;;;;;;9.70;5.13;;;;;;;;;;10497323;28;20032;-73
2023/07/07 11:52:38;;;;;;;12.63;5.10;;;;;;;;;;10497545;28;20079;-72
2023/07/07 11:57:41;;;;;;;7.88;4.93;;;;;;;;;;10497360;28;20423;-72
2023/07/07 12:02:45;;;;;;;7.05;4.88;;;;;;;;;;10497570;28;20017;-73
2023/07/07 12:07:51;;;;;;;12.77;4.80;;;;;;;;;;10497205;28;20024;-72
2023/07/07 12:12:55;;;;;;;9.85;6.25;;;;;;;;;;10497302;28;20012;-73
2023/07/07 12:18:02;;;;;;;13.00;6.50;;;;;;;;;;10497193;28;20024;-73
2023/07/07 12:23:04;;;;;;;19.95;7.72;;;;;;;;;;10496864;28;20020;-73
2023/07/07 12:28:04;;;;;;;16.77;7.93;;;;;;;;;;10497651;28;20020;-73
2023/07/07 12:33:05;;;;;;;18.70;8.00;;;;;;;;;;10496500;28;20314;-72
2023/07/07 12:38:26;;;;;;;21.58;9.73;;;;;;;;;;10496557;28;20254;-72
2023/07/07 12:43:32;;;;;;;19.73;10.95;;;;;;;;;;10478063;28;20062;-72
2023/07/07 12:48:32;;;;;;;20.55;11.27;;;;;;;;;;10495712;28;20025;-71
2023/07/07 12:53:35;;;;;;;19.53;11.23;;;;;;;;;;10495442;28;20242;-71
2023/07/07 12:58:38;;;;;;;20.10;11.32;;;;;;;;;;10493352;28;20059;-70
2023/07/07 13:03:58;;;;;;;19.13;10.55;;;;;;;;;;10490024;28;20021;-71
2023/07/07 13:09:13;;;;;;;24.02;11.23;;;;;;;;;;10496016;28;20183;-71
2023/07/07 13:14:23;;;;;;;16.52;9.02;;;;;;;;;;10500841;28;20082;-71
2023/07/07 13:19:23;;;;;;;12.65;7.75;;;;;;;;;;10502995;28;20311;-70
2023/07/07 13:24:26;;;;;;;13.95;7.93;;;;;;;;;;10503505;28;20043;-71
2023/07/07 13:29:27;;;;;;;14.57;7.72;;;;;;;;;;10502802;28;20023;-72
2023/07/07 13:34:28;;;;;;;12.65;8.35;;;;;;;;;;10502236;28;20027;-72
2023/07/07 13:39:29;;;;;;;14.57;8.52;;;;;;;;;;10503257;28;20017;-72
2023/07/07 13:44:29;;;;;;;16.73;8.20;;;;;;;;;;10501117;28;20306;-72
2023/07/07 13:49:32;;;;;;;10.90;7.57;;;;;;;;;;10502301;28;20028;-71
2023/07/07 13:54:32;;;;;;;14.48;8.90;;;;;;;;;;10499943;28;20705;-71
2023/07/07 13:59:33;;;;;;;9.85;7.03;;;;;;;;;;10502124;28;20183;-72
2023/07/07 14:04:38;;;;;;;14.73;7.72;;;;;;;;;;10501046;28;20025;-71
2023/07/07 14:09:42;;;;;;;12.48;7.43;;;;;;;;;;10502960;28;20028;-73
2023/07/07 14:14:47;;;;;;;10.85;6.90;;;;;;;;;;10501224;28;20040;-72
2023/07/07 14:19:50;;;;;;;11.55;6.50;;;;;;;;;;10501403;28;20084;-71
2023/07/07 14:24:50;;;;;;;18.45;7.45;;;;;;;;;;10499233;28;20020;-71
2023/07/07 14:29:51;;;;;;;16.13;7.30;;;;;;;;;;10500918;28;20020;-71
2023/07/07 14:34:55;;;;;;;10.40;6.73;;;;;;;;;;10500633;28;20340;-71
2023/07/07 14:39:59;;;;;;;13.80;7.28;;;;;;;;;;10500578;28;20508;-71
2023/07/07 14:45:00;;;;;;;9.10;7.40;;;;;;;;;;10500243;28;20301;-71
2023/07/07 14:50:02;;;;;;;16.42;8.77;;;;;;;;;;10499725;28;20062;-71
2023/07/07 14:55:04;;;;;;;15.32;7.40;;;;;;;;;;10499590;28;20254;-71
2023/07/07 15:00:23;;;;;;;14.75;8.63;;;;;;;;;;10499226;28;20270;-72
2023/07/07 15:05:23;;;;;;;15.98;8.05;;;;;;;;;;10499451;28;20044;-71
2023/07/07 15:10:24;;;;;;;15.15;9.25;;;;;;;;;;10498111;28;20111;-71
2023/07/07 15:15:24;;;;;;;18.13;8.68;;;;;;;;;;10499085;28;20329;-71
2023/07/07 15:20:25;;;;;;;13.57;8.45;;;;;;;;;;10497323;28;20420;-72
2023/07/07 15:25:25;;;;;;;17.52;8.75;;;;;;;;;;10499300;28;20195;-70
2023/07/07 15:30:25;;;;;;;12.32;8.52;;;;;;;;;;10499125;28;20230;-70
2023/07/07 15:35:25;;;;;;;12.70;9.30;;;;;;;;;;10496714;28;20322;-71
2023/07/07 15:40:26;;;;;;;13.70;9.85;;;;;;;;;;10500036;28;20050;-71
2023/07/07 15:45:26;;;;;;;18.52;12.30;;;;;;;;;;10474671;28;20230;-72
2023/07/07 15:50:26;;;;;;;18.05;11.00;;;;;;;;;;10473727;28;20059;-71
2023/07/07 15:55:26;;;;;;;14.45;10.70;;;;;;;;;;10469472;28;20072;-71
2023/07/07 16:00:30;;;;;;;13.60;9.77;;;;;;;;;;10479937;28;20310;-71
2023/07/07 16:05:30;;;;;;;15.55;10.10;;;;;;;;;;10489225;28;20020;-71
2023/07/07 16:10:30;;;;;;;12.93;8.40;;;;;;;;;;10476998;28;20528;-72
2023/07/07 16:15:30;;;;;;;19.37;8.97;;;;;;;;;;10482864;28;20024;-72
2023/07/07 16:20:31;;;;;;;11.43;7.75;;;;;;;;;;10480883;28;20258;-71
2023/07/07 16:25:31;;;;;;;10.57;7.43;;;;;;;;;;10474512;28;20029;-73
2023/07/07 16:30:33;;;;;;;11.38;7.20;;;;;;;;;;10475091;28;20260;-71
2023/07/07 16:35:34;;;;;;;13.98;8.98;;;;;;;;;;10471367;28;20025;-70
2023/07/07 16:40:36;;;;;;;14.32;9.52;;;;;;;;;;10476659;28;20021;-72
2023/07/07 16:45:36;;;;;;;16.20;8.75;;;;;;;;;;10458214;28;20028;-72
2023/07/07 16:50:37;;;;;;;13.80;8.77;;;;;;;;;;10464155;28;20021;-72
2023/07/07 16:55:37;;;;;;;12.70;9.15;;;;;;;;;;10465676;28;20330;-73
2023/07/07 17:00:37;;;;;;;14.23;9.15;;;;;;;;;;10465978;28;20017;-72
2023/07/07 17:05:38;;;;;;;16.98;10.23;;;;;;;;;;10464368;28;20021;-72
2023/07/07 17:10:40;;;;;;;14.77;9.00;;;;;;;;;;10463464;28;20032;-71
2023/07/07 17:15:40;;;;;;;14.80;9.07;;;;;;;;;;10461937;28;20117;-72
2023/07/07 17:20:40;;;;;;;15.90;8.95;;;;;;;;;;10464252;28;20184;-72
2023/07/07 17:25:41;;;;;;;17.80;9.27;;;;;;;;;;10466351;28;20029;-72
2023/07/07 17:30:41;;;;;;;15.93;9.02;;;;;;;;;;10465167;28;20631;-72
2023/07/07 17:35:41;;;;;;;17.50;8.77;;;;;;;;;;10464838;28;20036;-72
2023/07/07 17:40:44;;;;;;;16.10;7.65;;;;;;;;;;10463506;28;20588;-74
2023/07/07 17:45:44;;;;;;;10.55;7.95;;;;;;;;;;10464558;28;20055;-71
2023/07/07 17:50:48;;;;;;;14.48;8.55;;;;;;;;;;10464266;28;20341;-72
2023/07/07 17:55:49;;;;;;;14.73;8.65;;;;;;;;;;10463387;28;20138;-71
2023/07/07 18:00:49;;;;;;;13.68;8.55;;;;;;;;;;10463637;28;20044;-73
2023/07/07 18:05:50;;;;;;;13.82;7.75;;;;;;;;;;10464568;28;20058;-71
2023/07/07 18:10:50;;;;;;;15.18;8.43;;;;;;;;;;10462429;28;20017;-72
2023/07/07 18:15:50;;;;;;;11.65;7.93;;;;;;;;;;10463961;28;20434;-72
2023/07/07 18:20:54;;;;;;;15.77;8.73;;;;;;;;;;10463484;28;20084;-72
2023/07/07 18:25:54;;;;;;;12.35;8.13;;;;;;;;;;10465442;28;20259;-71
2023/07/07 18:30:57;;;;;;;14.02;8.57;;;;;;;;;;10463163;28;20032;-72
2023/07/07 18:35:57;;;;;;;15.55;8.35;;;;;;;;;;10461352;28;20024;-72
2023/07/07 18:40:57;;;;;;;15.30;8.80;;;;;;;;;;10462451;28;20025;-72
2023/07/07 18:45:58;;;;;;;16.80;9.40;;;;;;;;;;10461972;28;20052;-72
2023/07/07 18:50:58;;;;;;;15.55;8.38;;;;;;;;;;10461821;28;20218;-73
2023/07/07 18:56:01;;;;;;;15.48;8.57;;;;;;;;;;10462890;28;20025;-72
2023/07/07 19:01:02;;;;;;;15.23;9.52;;;;;;;;;;10461320;28;20021;-72
2023/07/07 19:06:02;;;;;;;12.53;8.77;;;;;;;;;;10462435;28;20036;-72
2023/07/07 19:11:02;;;;;;;13.73;9.60;;;;;;;;;;10460850;28;20537;-73
2023/07/07 19:16:09;;;;;;;17.00;9.27;;;;;;;;;;10461667;28;20116;-72
2023/07/07 19:21:17;;;;;;;17.67;10.02;;;;;;;;;;10461008;28;20028;-72
2023/07/07 19:26:28;;;;;;;14.55;9.20;;;;;;;;;;10460534;28;20180;-73
2023/07/07 19:31:29;;;;;;;15.57;9.50;;;;;;;;;;10460233;28;20271;-72
2023/07/07 19:36:34;;;;;;;15.05;10.50;;;;;;;;;;10460305;28;20024;-71
2023/07/07 19:41:35;;;;;;;12.50;9.35;;;;;;;;;;10460096;28;20045;-72
2023/07/07 19:46:35;;;;;;;17.23;9.95;;;;;;;;;;10459647;28;20028;-72
2023/07/07 19:51:35;;;;;;;20.15;9.77;;;;;;;;;;10459745;28;20049;-72
2023/07/07 19:56:36;;;;;;;19.90;11.18;;;;;;;;;;10459441;28;20035;-72
2023/07/07 20:01:36;;;;;;;14.13;9.53;;;;;;;;;;10459451;28;20246;-72
2023/07/07 20:06:38;;;;;;;19.92;10.35;;;;;;;;;;10459349;28;20026;-71
2023/07/07 20:11:41;;;;;;;17.98;10.95;;;;;;;;;;10459533;28;20048;-71
2023/07/07 20:16:42;;;;;;;16.60;10.05;;;;;;;;;;10458717;28;20021;-72
2023/07/07 20:21:42;;;;;;;16.02;10.30;;;;;;;;;;10458812;28;20025;-71
2023/07/07 20:26:43;;;;;;;15.07;10.07;;;;;;;;;;10458583;28;20130;-72
2023/07/07 20:31:44;;;;;;;14.90;9.90;;;;;;;;;;10458770;28;20067;-72
2023/07/07 20:36:45;;;;;;;16.50;9.93;;;;;;;;;;10458415;28;20285;-72
2023/07/07 20:41:46;;;;;;;12.98;9.48;;;;;;;;;;10458291;28;20017;-72
2023/07/07 20:46:46;;;;;;;15.75;9.52;;;;;;;;;;10458087;28;20028;-73
2023/07/07 20:51:48;;;;;;;14.05;9.25;;;;;;;;;;10458241;28;20041;-72
2023/07/07 20:56:48;;;;;;;12.57;7.93;;;;;;;;;;10457797;28;20303;-72
2023/07/07 21:01:49;;;;;;;12.13;8.47;;;;;;;;;;10457928;28;20071;-72
2023/07/07 21:06:49;;;;;;;16.02;9.05;;;;;;;;;;10457883;28;20017;-72
2023/07/07 21:11:49;;;;;;;16.87;8.30;;;;;;;;;;10457772;28;20280;-73
2023/07/07 21:16:50;;;;;;;13.13;8.27;;;;;;;;;;10456242;28;20025;-72
2023/07/07 21:21:50;;;;;;;13.55;8.13;;;;;;;;;;10457630;28;20324;-73
2023/07/07 21:26:50;;;;;;;12.03;7.27;;;;;;;;;;10457464;28;20024;-72
2023/07/07 21:31:51;;;;;;;10.50;6.77;;;;;;;;;;10457206;28;20071;-71
2023/07/07 21:36:51;;;;;;;10.13;6.30;;;;;;;;;;10464339;28;20512;-72
2023/07/07 21:41:52;;;;;;;13.95;6.38;;;;;;;;;;10465069;28;20287;-72
2023/07/07 21:46:52;;;;;;;9.30;6.05;;;;;;;;;;10463326;28;20402;-72
2023/07/07 21:51:52;;;;;;;10.90;6.07;;;;;;;;;;10464637;28;20342;-72
2023/07/07 21:56:52;;;;;;;9.02;6.50;;;;;;;;;;10465025;28;20056;-72
2023/07/07 22:01:56;;;;;;;8.20;5.80;;;;;;;;;;10464379;28;20055;-72
2023/07/07 22:06:56;;;;;;;11.23;6.82;;;;;;;;;;10464597;28;20326;-72
2023/07/07 22:11:57;;;;;;;18.83;7.13;;;;;;;;;;10464022;28;20021;-72
2023/07/07 22:16:57;;;;;;;9.73;5.78;;;;;;;;;;10463472;28;20012;-71
2023/07/07 22:21:58;;;;;;;10.85;6.82;;;;;;;;;;10463199;28;20066;-72
2023/07/07 22:26:58;;;;;;;10.20;7.07;;;;;;;;;;10463019;28;20040;-73
2023/07/07 22:31:58;;;;;;;14.13;7.28;;;;;;;;;;10462892;28;20346;-72
2023/07/07 22:36:58;;;;;;;10.98;6.72;;;;;;;;;;10463113;28;20326;-73
2023/07/07 22:41:59;;;;;;;14.93;7.47;;;;;;;;;;10461652;28;20067;-72
2023/07/07 22:46:59;;;;;;;11.00;6.35;;;;;;;;;;10461220;28;20024;-72
2023/07/07 22:51:59;;;;;;;12.00;6.68;;;;;;;;;;10462368;28;20060;-71
2023/07/07 22:56:59;;;;;;;9.30;6.45;;;;;;;;;;10461706;28;20207;-72
2023/07/07 23:02:00;;;;;;;12.80;6.57;;;;;;;;;;10462050;28;20036;-72
2023/07/07 23:07:00;;;;;;;10.80;6.97;;;;;;;;;;10462335;28;20226;-72
2023/07/07 23:12:00;;;;;;;11.57;8.23;;;;;;;;;;10461362;28;20036;-72
2023/07/07 23:17:00;;;;;;;16.80;8.02;;;;;;;;;;10460624;28;20024;-73
2023/07/07 23:22:01;;;;;;;13.05;9.02;;;;;;;;;;10461110;28;20215;-72
2023/07/07 23:27:02;;;;;;;13.35;8.82;;;;;;;;;;10460535;28;20021;-72
2023/07/07 23:32:08;;;;;;;16.17;10.95;;;;;;;;;;10460471;28;20055;-71
2023/07/07 23:37:19;;;;;;;23.98;10.13;;;;;;;;;;10460227;28;20314;-72
2023/07/07 23:42:19;;;;;;;18.42;11.70;;;;;;;;;;10460432;28;20411;-73
2023/07/07 23:47:20;;;;;;;18.37;12.23;;;;;;;;;;10459541;28;20311;-72
2023/07/07 23:52:21;;;;;;;24.60;14.57;;;;;;;;;;10459679;28;20120;-73
2023/07/07 23:57:21;;;;;;;22.33;12.98;;;;;;;;;;10459124;28;20036;-73
